sensor_id;sensor_type;location;lat;lon;timestamp;temperature;humidity
21722;DHT22;11023;48.274;7.794;2023-04-06T00:01:38;2.20;99.90
21722;DHT22;11023;48.274;7.794;2023-04-06T00:04:04;2.10;99.90
21722;DHT22;11023;48.274;7.794;2023-04-06T00:06:30;2.20;99.90
21722;DHT22;11023;48.274;7.794;2023-04-06T00:08:57;2.10;99.90
21722;DHT22;11023;48.274;7.794;2023-04-06T00:11:22;2.10;99.90
21722;DHT22;11023;48.274;7.794;2023-04-06T00:13:48;2.10;99.90
21722;DHT22;11023;48.274;7.794;2023-04-06T00:16:15;2.10;99.90
21722;DHT22;11023;48.274;7.794;2023-04-06T00:18:41;2.10;99.90
21722;DHT22;11023;48.274;7.794;2023-04-06T00:21:07;2.10;99.90
21722;DHT22;11023;48.274;7.794;2023-04-06T00:23:32;2.10;99.90
21722;DHT22;11023;48.274;7.794;2023-04-06T00:25:58;2.10;99.90
21722;DHT22;11023;48.274;7.794;2023-04-06T00:28:24;2.10;99.90
21722;DHT22;11023;48.274;7.794;2023-04-06T00:30:54;2.10;99.90
21722;DHT22;11023;48.274;7.794;2023-04-06T00:33:21;2.10;99.90
21722;DHT22;11023;48.274;7.794;2023-04-06T00:35:47;2.00;99.90
21722;DHT22;11023;48.274;7.794;2023-04-06T00:38:13;2.00;99.90
21722;DHT22;11023;48.274;7.794;2023-04-06T00:40:39;1.90;99.90
21722;DHT22;11023;48.274;7.794;2023-04-06T00:43:08;1.90;99.90
21722;DHT22;11023;48.274;7.794;2023-04-06T00:45:35;1.90;99.90
21722;DHT22;11023;48.274;7.794;2023-04-06T00:48:00;1.80;99.90
21722;DHT22;11023;48.274;7.794;2023-04-06T00:50:27;1.80;99.90
21722;DHT22;11023;48.274;7.794;2023-04-06T00:52:56;1.80;99.90
21722;DHT22;11023;48.274;7.794;2023-04-06T00:55:22;1.80;99.90
21722;DHT22;11023;48.274;7.794;2023-04-06T00:57:48;1.80;99.90
21722;DHT22;11023;48.274;7.794;2023-04-06T01:00:16;1.70;99.90
21722;DHT22;11023;48.274;7.794;2023-04-06T01:02:42;1.70;99.90
21722;DHT22;11023;48.274;7.794;2023-04-06T01:05:10;1.70;99.90
21722;DHT22;11023;48.274;7.794;2023-04-06T01:07:37;1.70;99.90
21722;DHT22;11023;48.274;7.794;2023-04-06T01:10:04;1.60;99.90
21722;DHT22;11023;48.274;7.794;2023-04-06T01:12:30;1.50;99.90
21722;DHT22;11023;48.274;7.794;2023-04-06T01:14:56;1.50;99.90
21722;DHT22;11023;48.274;7.794;2023-04-06T01:17:22;1.40;99.90
21722;DHT22;11023;48.274;7.794;2023-04-06T01:19:48;1.30;99.90
21722;DHT22;11023;48.274;7.794;2023-04-06T01:22:18;1.30;99.90
21722;DHT22;11023;48.274;7.794;2023-04-06T01:24:44;1.30;99.90
21722;DHT22;11023;48.274;7.794;2023-04-06T01:27:10;1.20;99.90
21722;DHT22;11023;48.274;7.794;2023-04-06T01:29:36;1.20;99.90
21722;DHT22;11023;48.274;7.794;2023-04-06T01:32:01;1.20;99.90
21722;DHT22;11023;48.274;7.794;2023-04-06T01:34:27;1.10;99.90
21722;DHT22;11023;48.274;7.794;2023-04-06T01:36:52;1.20;99.90
21722;DHT22;11023;48.274;7.794;2023-04-06T01:39:19;1.10;99.90
21722;DHT22;11023;48.274;7.794;2023-04-06T01:41:44;1.10;99.90
21722;DHT22;11023;48.274;7.794;2023-04-06T01:44:12;1.10;99.90
21722;DHT22;11023;48.274;7.794;2023-04-06T01:46:38;1.10;99.90
21722;DHT22;11023;48.274;7.794;2023-04-06T01:49:04;1.00;99.90
21722;DHT22;11023;48.274;7.794;2023-04-06T01:51:30;1.00;99.90
21722;DHT22;11023;48.274;7.794;2023-04-06T01:53:56;1.00;99.90
21722;DHT22;11023;48.274;7.794;2023-04-06T01:56:21;1.00;99.90
21722;DHT22;11023;48.274;7.794;2023-04-06T01:58:47;1.00;99.90
21722;DHT22;11023;48.274;7.794;2023-04-06T02:01:13;0.90;99.90
21722;DHT22;11023;48.274;7.794;2023-04-06T02:03:38;0.90;99.90
21722;DHT22;11023;48.274;7.794;2023-04-06T02:06:04;0.90;99.90
21722;DHT22;11023;48.274;7.794;2023-04-06T02:08:30;0.90;99.90
21722;DHT22;11023;48.274;7.794;2023-04-06T02:10:55;0.90;99.90
21722;DHT22;11023;48.274;7.794;2023-04-06T02:13:21;0.80;99.90
21722;DHT22;11023;48.274;7.794;2023-04-06T02:15:47;0.90;99.90
21722;DHT22;11023;48.274;7.794;2023-04-06T02:18:12;0.80;99.90
21722;DHT22;11023;48.274;7.794;2023-04-06T02:20:38;0.80;99.90
21722;DHT22;11023;48.274;7.794;2023-04-06T02:23:04;0.80;99.90
21722;DHT22;11023;48.274;7.794;2023-04-06T02:25:29;0.80;99.90
21722;DHT22;11023;48.274;7.794;2023-04-06T02:27:55;0.80;99.90
21722;DHT22;11023;48.274;7.794;2023-04-06T02:30:20;0.80;99.90
21722;DHT22;11023;48.274;7.794;2023-04-06T02:32:46;0.70;99.90
21722;DHT22;11023;48.274;7.794;2023-04-06T02:35:12;0.70;99.90
21722;DHT22;11023;48.274;7.794;2023-04-06T02:37:37;0.70;99.90
21722;DHT22;11023;48.274;7.794;2023-04-06T02:40:03;0.70;99.90
21722;DHT22;11023;48.274;7.794;2023-04-06T02:42:29;0.70;99.90
21722;DHT22;11023;48.274;7.794;2023-04-06T02:44:55;0.60;99.90
21722;DHT22;11023;48.274;7.794;2023-04-06T02:47:20;0.70;99.90
21722;DHT22;11023;48.274;7.794;2023-04-06T02:49:46;0.70;99.90
21722;DHT22;11023;48.274;7.794;2023-04-06T02:52:12;0.70;99.90
21722;DHT22;11023;48.274;7.794;2023-04-06T02:54:37;0.60;99.90
21722;DHT22;11023;48.274;7.794;2023-04-06T02:57:03;0.60;99.90
21722;DHT22;11023;48.274;7.794;2023-04-06T02:59:29;0.60;99.90
21722;DHT22;11023;48.274;7.794;2023-04-06T03:01:55;0.60;99.90
21722;DHT22;11023;48.274;7.794;2023-04-06T03:04:20;0.60;99.90
21722;DHT22;11023;48.274;7.794;2023-04-06T03:06:48;0.60;99.90
21722;DHT22;11023;48.274;7.794;2023-04-06T03:09:13;0.60;99.90
21722;DHT22;11023;48.274;7.794;2023-04-06T03:11:39;0.60;99.90
21722;DHT22;11023;48.274;7.794;2023-04-06T03:14:05;0.60;99.90
21722;DHT22;11023;48.274;7.794;2023-04-06T03:16:30;0.60;99.90
21722;DHT22;11023;48.274;7.794;2023-04-06T03:18:56;0.60;99.90
21722;DHT22;11023;48.274;7.794;2023-04-06T03:21:22;0.60;99.90
21722;DHT22;11023;48.274;7.794;2023-04-06T03:23:47;0.60;99.90
21722;DHT22;11023;48.274;7.794;2023-04-06T03:26:16;0.60;99.90
21722;DHT22;11023;48.274;7.794;2023-04-06T03:28:42;0.60;99.90
21722;DHT22;11023;48.274;7.794;2023-04-06T03:31:07;0.60;99.90
21722;DHT22;11023;48.274;7.794;2023-04-06T03:33:33;0.60;99.90
21722;DHT22;11023;48.274;7.794;2023-04-06T03:35:58;0.60;99.90
21722;DHT22;11023;48.274;7.794;2023-04-06T03:38:24;0.50;99.90
21722;DHT22;11023;48.274;7.794;2023-04-06T03:40:50;0.50;99.90
21722;DHT22;11023;48.274;7.794;2023-04-06T03:43:15;0.50;99.90
21722;DHT22;11023;48.274;7.794;2023-04-06T03:45:41;0.50;99.90
21722;DHT22;11023;48.274;7.794;2023-04-06T03:48:07;0.40;99.90
21722;DHT22;11023;48.274;7.794;2023-04-06T03:50:32;0.40;99.90
21722;DHT22;11023;48.274;7.794;2023-04-06T03:52:58;0.30;99.90
21722;DHT22;11023;48.274;7.794;2023-04-06T03:55:24;0.30;99.90
21722;DHT22;11023;48.274;7.794;2023-04-06T03:57:49;0.20;99.90
21722;DHT22;11023;48.274;7.794;2023-04-06T04:00:15;0.20;99.90
21722;DHT22;11023;48.274;7.794;2023-04-06T04:02:41;0.10;99.90
21722;DHT22;11023;48.274;7.794;2023-04-06T04:05:07;0.10;99.90
21722;DHT22;11023;48.274;7.794;2023-04-06T04:07:33;0.10;99.90
21722;DHT22;11023;48.274;7.794;2023-04-06T04:09:58;0.10;99.90
21722;DHT22;11023;48.274;7.794;2023-04-06T04:12:24;0.00;99.90
21722;DHT22;11023;48.274;7.794;2023-04-06T04:14:50;0.00;99.90
21722;DHT22;11023;48.274;7.794;2023-04-06T04:17:16;0.00;99.90
21722;DHT22;11023;48.274;7.794;2023-04-06T04:19:41;-0.10;99.90
21722;DHT22;11023;48.274;7.794;2023-04-06T04:22:07;0.00;99.90
21722;DHT22;11023;48.274;7.794;2023-04-06T04:24:33;-0.10;99.90
21722;DHT22;11023;48.274;7.794;2023-04-06T04:26:59;-0.10;99.90
21722;DHT22;11023;48.274;7.794;2023-04-06T04:29:26;-0.10;99.90
21722;DHT22;11023;48.274;7.794;2023-04-06T04:31:52;0.00;99.90
21722;DHT22;11023;48.274;7.794;2023-04-06T04:34:18;0.00;99.90
21722;DHT22;11023;48.274;7.794;2023-04-06T04:36:46;0.00;99.90
21722;DHT22;11023;48.274;7.794;2023-04-06T04:39:11;0.00;99.90
21722;DHT22;11023;48.274;7.794;2023-04-06T04:41:37;0.00;99.90
21722;DHT22;11023;48.274;7.794;2023-04-06T04:44:03;0.00;99.90
21722;DHT22;11023;48.274;7.794;2023-04-06T04:46:29;0.00;99.90
21722;DHT22;11023;48.274;7.794;2023-04-06T04:48:54;-0.10;99.90
21722;DHT22;11023;48.274;7.794;2023-04-06T04:51:20;0.00;99.90
21722;DHT22;11023;48.274;7.794;2023-04-06T04:53:46;-0.10;99.90
21722;DHT22;11023;48.274;7.794;2023-04-06T04:56:11;-0.10;99.90
21722;DHT22;11023;48.274;7.794;2023-04-06T04:58:37;-0.10;99.90
21722;DHT22;11023;48.274;7.794;2023-04-06T05:01:03;-0.10;99.90
21722;DHT22;11023;48.274;7.794;2023-04-06T05:03:28;-0.10;99.90
21722;DHT22;11023;48.274;7.794;2023-04-06T05:05:54;0.00;99.90
21722;DHT22;11023;48.274;7.794;2023-04-06T05:08:20;-0.10;99.90
21722;DHT22;11023;48.274;7.794;2023-04-06T05:10:46;-0.10;99.90
21722;DHT22;11023;48.274;7.794;2023-04-06T05:13:13;-0.10;99.90
21722;DHT22;11023;48.274;7.794;2023-04-06T05:15:40;-0.10;99.90
21722;DHT22;11023;48.274;7.794;2023-04-06T05:18:07;-0.10;99.90
21722;DHT22;11023;48.274;7.794;2023-04-06T05:20:33;-0.20;99.90
21722;DHT22;11023;48.274;7.794;2023-04-06T05:22:59;-0.20;99.90
21722;DHT22;11023;48.274;7.794;2023-04-06T05:25:25;-0.20;99.90
21722;DHT22;11023;48.274;7.794;2023-04-06T05:27:51;-0.20;99.90
21722;DHT22;11023;48.274;7.794;2023-04-06T05:30:16;-0.20;99.90
21722;DHT22;11023;48.274;7.794;2023-04-06T05:32:42;-0.20;99.90
21722;DHT22;11023;48.274;7.794;2023-04-06T05:35:09;-0.20;99.90
21722;DHT22;11023;48.274;7.794;2023-04-06T05:37:35;-0.20;99.90
21722;DHT22;11023;48.274;7.794;2023-04-06T05:40:01;-0.10;99.90
21722;DHT22;11023;48.274;7.794;2023-04-06T05:42:27;-0.10;99.90
21722;DHT22;11023;48.274;7.794;2023-04-06T05:44:53;0.00;99.90
21722;DHT22;11023;48.274;7.794;2023-04-06T05:47:19;0.00;99.90
21722;DHT22;11023;48.274;7.794;2023-04-06T05:49:44;0.10;99.90
21722;DHT22;11023;48.274;7.794;2023-04-06T05:52:10;0.10;99.90
21722;DHT22;11023;48.274;7.794;2023-04-06T05:54:39;0.20;99.90
21722;DHT22;11023;48.274;7.794;2023-04-06T05:57:04;0.30;99.90
21722;DHT22;11023;48.274;7.794;2023-04-06T05:59:30;0.30;99.90
21722;DHT22;11023;48.274;7.794;2023-04-06T06:01:56;0.40;99.90
21722;DHT22;11023;48.274;7.794;2023-04-06T06:04:22;0.40;99.90
21722;DHT22;11023;48.274;7.794;2023-04-06T06:06:48;0.40;99.90
21722;DHT22;11023;48.274;7.794;2023-04-06T06:09:13;0.50;99.90
21722;DHT22;11023;48.274;7.794;2023-04-06T06:11:39;0.60;99.90
21722;DHT22;11023;48.274;7.794;2023-04-06T06:14:06;0.60;99.90
21722;DHT22;11023;48.274;7.794;2023-04-06T06:16:32;0.70;99.90
21722;DHT22;11023;48.274;7.794;2023-04-06T06:18:57;0.80;99.90
21722;DHT22;11023;48.274;7.794;2023-04-06T06:21:23;0.80;99.90
21722;DHT22;11023;48.274;7.794;2023-04-06T06:23:50;0.90;99.90
21722;DHT22;11023;48.274;7.794;2023-04-06T06:26:16;1.10;99.90
21722;DHT22;11023;48.274;7.794;2023-04-06T06:28:42;1.10;99.90
21722;DHT22;11023;48.274;7.794;2023-04-06T06:31:08;1.10;99.90
21722;DHT22;11023;48.274;7.794;2023-04-06T06:33:33;1.30;99.90
21722;DHT22;11023;48.274;7.794;2023-04-06T06:35:59;1.40;99.90
21722;DHT22;11023;48.274;7.794;2023-04-06T06:38:25;1.50;99.90
21722;DHT22;11023;48.274;7.794;2023-04-06T06:40:51;1.50;99.90
21722;DHT22;11023;48.274;7.794;2023-04-06T06:43:17;1.70;99.90
21722;DHT22;11023;48.274;7.794;2023-04-06T06:45:42;1.80;99.90
21722;DHT22;11023;48.274;7.794;2023-04-06T06:48:09;1.80;99.90
21722;DHT22;11023;48.274;7.794;2023-04-06T06:50:34;1.90;99.90
21722;DHT22;11023;48.274;7.794;2023-04-06T06:53:00;2.00;99.90
21722;DHT22;11023;48.274;7.794;2023-04-06T06:55:25;2.00;99.90
21722;DHT22;11023;48.274;7.794;2023-04-06T06:57:52;2.10;99.90
21722;DHT22;11023;48.274;7.794;2023-04-06T07:00:18;2.20;99.90
21722;DHT22;11023;48.274;7.794;2023-04-06T07:02:46;2.20;99.90
21722;DHT22;11023;48.274;7.794;2023-04-06T07:05:12;2.30;99.90
21722;DHT22;11023;48.274;7.794;2023-04-06T07:07:38;2.40;99.90
21722;DHT22;11023;48.274;7.794;2023-04-06T07:10:04;2.50;99.90
21722;DHT22;11023;48.274;7.794;2023-04-06T07:12:30;2.60;99.90
21722;DHT22;11023;48.274;7.794;2023-04-06T07:14:55;2.80;99.90
21722;DHT22;11023;48.274;7.794;2023-04-06T07:17:21;2.80;99.90
21722;DHT22;11023;48.274;7.794;2023-04-06T07:19:47;2.90;99.90
21722;DHT22;11023;48.274;7.794;2023-04-06T07:22:12;3.10;99.90
21722;DHT22;11023;48.274;7.794;2023-04-06T07:24:38;3.20;99.90
21722;DHT22;11023;48.274;7.794;2023-04-06T07:27:04;3.30;99.90
21722;DHT22;11023;48.274;7.794;2023-04-06T07:29:30;3.40;99.90
21722;DHT22;11023;48.274;7.794;2023-04-06T07:31:55;3.60;99.90
21722;DHT22;11023;48.274;7.794;2023-04-06T07:34:22;3.70;99.90
21722;DHT22;11023;48.274;7.794;2023-04-06T07:36:47;3.80;99.90
21722;DHT22;11023;48.274;7.794;2023-04-06T07:39:13;3.90;99.90
21722;DHT22;11023;48.274;7.794;2023-04-06T07:41:39;4.00;99.90
21722;DHT22;11023;48.274;7.794;2023-04-06T07:44:05;4.00;99.90
21722;DHT22;11023;48.274;7.794;2023-04-06T07:46:31;4.20;99.90
21722;DHT22;11023;48.274;7.794;2023-04-06T07:48:59;4.30;99.90
21722;DHT22;11023;48.274;7.794;2023-04-06T07:51:25;4.50;99.90
21722;DHT22;11023;48.274;7.794;2023-04-06T07:53:51;4.70;99.90
21722;DHT22;11023;48.274;7.794;2023-04-06T07:56:17;4.80;99.90
21722;DHT22;11023;48.274;7.794;2023-04-06T07:58:43;5.10;99.90
21722;DHT22;11023;48.274;7.794;2023-04-06T08:01:09;5.20;99.90
21722;DHT22;11023;48.274;7.794;2023-04-06T08:03:35;5.40;99.90
21722;DHT22;11023;48.274;7.794;2023-04-06T08:06:01;5.60;99.90
21722;DHT22;11023;48.274;7.794;2023-04-06T08:08:27;5.80;99.90
21722;DHT22;11023;48.274;7.794;2023-04-06T08:10:53;6.00;99.90
21722;DHT22;11023;48.274;7.794;2023-04-06T08:13:19;6.20;99.90
21722;DHT22;11023;48.274;7.794;2023-04-06T08:15:45;6.40;99.90
21722;DHT22;11023;48.274;7.794;2023-04-06T08:18:11;6.60;99.90
21722;DHT22;11023;48.274;7.794;2023-04-06T08:20:36;6.80;99.90
21722;DHT22;11023;48.274;7.794;2023-04-06T08:23:02;7.10;99.90
21722;DHT22;11023;48.274;7.794;2023-04-06T08:25:29;7.20;99.90
21722;DHT22;11023;48.274;7.794;2023-04-06T08:27:55;7.50;99.90
21722;DHT22;11023;48.274;7.794;2023-04-06T08:30:21;7.60;99.90
21722;DHT22;11023;48.274;7.794;2023-04-06T08:32:47;7.70;99.90
21722;DHT22;11023;48.274;7.794;2023-04-06T08:35:12;7.80;99.90
21722;DHT22;11023;48.274;7.794;2023-04-06T08:37:38;7.90;99.90
21722;DHT22;11023;48.274;7.794;2023-04-06T08:40:04;8.00;99.90
21722;DHT22;11023;48.274;7.794;2023-04-06T08:42:33;8.10;99.90
21722;DHT22;11023;48.274;7.794;2023-04-06T08:44:59;8.20;99.90
21722;DHT22;11023;48.274;7.794;2023-04-06T08:47:25;8.20;99.90
21722;DHT22;11023;48.274;7.794;2023-04-06T08:49:52;8.40;99.90
21722;DHT22;11023;48.274;7.794;2023-04-06T08:52:19;8.40;99.90
21722;DHT22;11023;48.274;7.794;2023-04-06T08:54:45;8.60;99.90
21722;DHT22;11023;48.274;7.794;2023-04-06T08:57:11;8.70;99.90
21722;DHT22;11023;48.274;7.794;2023-04-06T08:59:38;8.80;99.90
21722;DHT22;11023;48.274;7.794;2023-04-06T09:02:04;8.90;99.90
21722;DHT22;11023;48.274;7.794;2023-04-06T09:04:32;8.90;99.90
21722;DHT22;11023;48.274;7.794;2023-04-06T09:06:59;9.00;99.90
21722;DHT22;11023;48.274;7.794;2023-04-06T09:09:25;9.10;99.90
21722;DHT22;11023;48.274;7.794;2023-04-06T09:11:51;9.30;99.90
21722;DHT22;11023;48.274;7.794;2023-04-06T09:14:32;9.40;99.90
21722;DHT22;11023;48.274;7.794;2023-04-06T09:16:58;9.60;99.90
21722;DHT22;11023;48.274;7.794;2023-04-06T09:19:24;9.70;99.90
21722;DHT22;11023;48.274;7.794;2023-04-06T09:21:49;9.80;99.90
21722;DHT22;11023;48.274;7.794;2023-04-06T09:24:15;9.90;99.90
21722;DHT22;11023;48.274;7.794;2023-04-06T09:26:47;10.00;99.90
21722;DHT22;11023;48.274;7.794;2023-04-06T09:29:25;10.20;99.90
21722;DHT22;11023;48.274;7.794;2023-04-06T09:31:52;10.30;99.90
21722;DHT22;11023;48.274;7.794;2023-04-06T09:34:21;10.50;99.90
21722;DHT22;11023;48.274;7.794;2023-04-06T09:36:48;10.70;99.90
21722;DHT22;11023;48.274;7.794;2023-04-06T09:39:14;10.80;99.90
21722;DHT22;11023;48.274;7.794;2023-04-06T09:41:40;11.00;99.90
21722;DHT22;11023;48.274;7.794;2023-04-06T09:46:36;11.20;99.90
21722;DHT22;11023;48.274;7.794;2023-04-06T09:49:03;11.30;99.90
21722;DHT22;11023;48.274;7.794;2023-04-06T09:51:32;11.50;99.90
21722;DHT22;11023;48.274;7.794;2023-04-06T09:54:01;11.70;99.90
21722;DHT22;11023;48.274;7.794;2023-04-06T09:56:34;11.90;99.90
21722;DHT22;11023;48.274;7.794;2023-04-06T09:59:07;12.10;99.90
21722;DHT22;11023;48.274;7.794;2023-04-06T10:01:36;12.20;99.90
21722;DHT22;11023;48.274;7.794;2023-04-06T10:04:23;12.40;99.90
21722;DHT22;11023;48.274;7.794;2023-04-06T10:06:52;12.60;99.90
21722;DHT22;11023;48.274;7.794;2023-04-06T10:09:24;12.60;99.90
21722;DHT22;11023;48.274;7.794;2023-04-06T10:11:51;12.70;99.90
21722;DHT22;11023;48.274;7.794;2023-04-06T10:14:17;12.80;99.90
21722;DHT22;11023;48.274;7.794;2023-04-06T10:16:43;12.90;99.90
21722;DHT22;11023;48.274;7.794;2023-04-06T10:19:23;13.00;99.90
21722;DHT22;11023;48.274;7.794;2023-04-06T10:21:54;13.00;99.90
21722;DHT22;11023;48.274;7.794;2023-04-06T10:24:20;13.10;99.90
21722;DHT22;11023;48.274;7.794;2023-04-06T10:26:57;13.10;99.90
21722;DHT22;11023;48.274;7.794;2023-04-06T10:29:23;13.10;99.90
21722;DHT22;11023;48.274;7.794;2023-04-06T10:31:49;13.20;99.90
21722;DHT22;11023;48.274;7.794;2023-04-06T10:34:15;13.30;99.90
21722;DHT22;11023;48.274;7.794;2023-04-06T10:36:41;13.40;99.90
21722;DHT22;11023;48.274;7.794;2023-04-06T10:39:07;13.40;99.90
21722;DHT22;11023;48.274;7.794;2023-04-06T10:41:43;13.50;99.90
21722;DHT22;11023;48.274;7.794;2023-04-06T10:44:19;13.60;99.90
21722;DHT22;11023;48.274;7.794;2023-04-06T10:46:55;13.80;99.90
21722;DHT22;11023;48.274;7.794;2023-04-06T10:49:21;13.90;99.90
21722;DHT22;11023;48.274;7.794;2023-04-06T10:51:55;14.00;99.90
21722;DHT22;11023;48.274;7.794;2023-04-06T10:54:21;14.00;99.90
21722;DHT22;11023;48.274;7.794;2023-04-06T10:56:48;13.90;99.90
21722;DHT22;11023;48.274;7.794;2023-04-06T10:59:17;14.00;99.90
21722;DHT22;11023;48.274;7.794;2023-04-06T11:01:44;14.20;99.90
21722;DHT22;11023;48.274;7.794;2023-04-06T11:04:19;14.40;99.90
21722;DHT22;11023;48.274;7.794;2023-04-06T11:06:49;14.50;99.90
21722;DHT22;11023;48.274;7.794;2023-04-06T11:11:50;14.80;99.90
21722;DHT22;11023;48.274;7.794;2023-04-06T11:14:16;15.00;99.90
21722;DHT22;11023;48.274;7.794;2023-04-06T11:16:41;15.10;99.90
21722;DHT22;11023;48.274;7.794;2023-04-06T11:19:07;15.10;99.90
21722;DHT22;11023;48.274;7.794;2023-04-06T11:21:45;15.30;99.90
21722;DHT22;11023;48.274;7.794;2023-04-06T11:24:15;15.30;99.90
21722;DHT22;11023;48.274;7.794;2023-04-06T11:26:49;15.50;99.90
21722;DHT22;11023;48.274;7.794;2023-04-06T11:29:21;15.50;99.90
21722;DHT22;11023;48.274;7.794;2023-04-06T11:31:49;15.50;99.90
21722;DHT22;11023;48.274;7.794;2023-04-06T11:34:20;15.70;99.90
21722;DHT22;11023;48.274;7.794;2023-04-06T11:36:48;15.70;99.90
21722;DHT22;11023;48.274;7.794;2023-04-06T11:39:21;15.80;99.90
21722;DHT22;11023;48.274;7.794;2023-04-06T11:42:01;15.90;99.90
21722;DHT22;11023;48.274;7.794;2023-04-06T11:44:37;15.90;99.90
21722;DHT22;11023;48.274;7.794;2023-04-06T11:47:09;15.90;99.90
21722;DHT22;11023;48.274;7.794;2023-04-06T11:49:40;16.00;99.90
21722;DHT22;11023;48.274;7.794;2023-04-06T11:52:19;15.80;99.00
21722;DHT22;11023;48.274;7.794;2023-04-06T11:54:46;16.00;99.90
21722;DHT22;11023;48.274;7.794;2023-04-06T11:57:12;16.30;99.90
21722;DHT22;11023;48.274;7.794;2023-04-06T11:59:38;16.20;98.20
21722;DHT22;11023;48.274;7.794;2023-04-06T12:02:04;16.10;98.70
21722;DHT22;11023;48.274;7.794;2023-04-06T12:04:31;16.10;99.90
21722;DHT22;11023;48.274;7.794;2023-04-06T12:06:57;16.30;99.60
21722;DHT22;11023;48.274;7.794;2023-04-06T12:09:23;16.50;98.60
21722;DHT22;11023;48.274;7.794;2023-04-06T12:11:49;16.70;99.40
21722;DHT22;11023;48.274;7.794;2023-04-06T12:14:14;17.00;99.50
21722;DHT22;11023;48.274;7.794;2023-04-06T12:16:40;17.20;98.00
21722;DHT22;11023;48.274;7.794;2023-04-06T12:19:06;17.40;97.40
21722;DHT22;11023;48.274;7.794;2023-04-06T12:21:33;17.30;95.10
21722;DHT22;11023;48.274;7.794;2023-04-06T12:23:59;17.10;94.30
21722;DHT22;11023;48.274;7.794;2023-04-06T12:26:26;17.20;95.30
21722;DHT22;11023;48.274;7.794;2023-04-06T12:28:52;17.30;95.70
21722;DHT22;11023;48.274;7.794;2023-04-06T12:31:19;17.50;95.50
21722;DHT22;11023;48.274;7.794;2023-04-06T12:33:50;17.50;95.40
21722;DHT22;11023;48.274;7.794;2023-04-06T12:36:16;17.60;95.20
21722;DHT22;11023;48.274;7.794;2023-04-06T12:38:46;17.60;94.80
21722;DHT22;11023;48.274;7.794;2023-04-06T12:41:12;17.70;94.70
21722;DHT22;11023;48.274;7.794;2023-04-06T12:43:39;17.70;93.90
21722;DHT22;11023;48.274;7.794;2023-04-06T12:46:05;17.70;93.80
21722;DHT22;11023;48.274;7.794;2023-04-06T12:48:31;17.80;93.00
21722;DHT22;11023;48.274;7.794;2023-04-06T12:50:58;17.80;92.70
21722;DHT22;11023;48.274;7.794;2023-04-06T12:53:25;17.80;93.10
21722;DHT22;11023;48.274;7.794;2023-04-06T12:55:51;17.70;91.10
21722;DHT22;11023;48.274;7.794;2023-04-06T12:58:17;17.70;91.90
21722;DHT22;11023;48.274;7.794;2023-04-06T13:00:43;17.70;91.40
21722;DHT22;11023;48.274;7.794;2023-04-06T13:03:08;17.70;91.70
21722;DHT22;11023;48.274;7.794;2023-04-06T13:05:34;17.90;92.50
21722;DHT22;11023;48.274;7.794;2023-04-06T13:08:00;18.00;92.40
21722;DHT22;11023;48.274;7.794;2023-04-06T13:10:26;18.10;92.20
21722;DHT22;11023;48.274;7.794;2023-04-06T13:12:52;18.10;90.90
21722;DHT22;11023;48.274;7.794;2023-04-06T13:15:18;18.00;91.30
21722;DHT22;11023;48.274;7.794;2023-04-06T13:17:43;18.10;92.10
21722;DHT22;11023;48.274;7.794;2023-04-06T13:20:09;18.20;92.00
21722;DHT22;11023;48.274;7.794;2023-04-06T13:22:35;18.30;91.70
21722;DHT22;11023;48.274;7.794;2023-04-06T13:25:01;18.40;91.50
21722;DHT22;11023;48.274;7.794;2023-04-06T13:27:27;18.30;90.60
21722;DHT22;11023;48.274;7.794;2023-04-06T13:29:55;18.30;91.20
21722;DHT22;11023;48.274;7.794;2023-04-06T13:32:21;18.40;90.30
21722;DHT22;11023;48.274;7.794;2023-04-06T13:34:47;18.40;90.20
21722;DHT22;11023;48.274;7.794;2023-04-06T13:37:15;18.10;87.70
21722;DHT22;11023;48.274;7.794;2023-04-06T13:39:41;18.00;90.10
21722;DHT22;11023;48.274;7.794;2023-04-06T13:42:06;18.00;89.90
21722;DHT22;11023;48.274;7.794;2023-04-06T13:44:32;18.20;90.30
21722;DHT22;11023;48.274;7.794;2023-04-06T13:46:58;18.30;90.00
21722;DHT22;11023;48.274;7.794;2023-04-06T13:49:24;18.30;89.60
21722;DHT22;11023;48.274;7.794;2023-04-06T13:51:49;18.30;90.20
21722;DHT22;11023;48.274;7.794;2023-04-06T13:54:15;18.30;89.90
21722;DHT22;11023;48.274;7.794;2023-04-06T13:56:41;18.30;90.00
21722;DHT22;11023;48.274;7.794;2023-04-06T13:59:06;18.20;89.40
21722;DHT22;11023;48.274;7.794;2023-04-06T14:01:32;18.00;90.00
21722;DHT22;11023;48.274;7.794;2023-04-06T14:03:58;17.90;90.60
21722;DHT22;11023;48.274;7.794;2023-04-06T14:06:23;17.80;90.80
21722;DHT22;11023;48.274;7.794;2023-04-06T14:08:50;17.70;89.40
21722;DHT22;11023;48.274;7.794;2023-04-06T14:11:15;17.50;90.60
21722;DHT22;11023;48.274;7.794;2023-04-06T14:13:41;17.20;90.50
21722;DHT22;11023;48.274;7.794;2023-04-06T14:16:10;17.20;90.50
21722;DHT22;11023;48.274;7.794;2023-04-06T14:18:37;17.00;89.50
21722;DHT22;11023;48.274;7.794;2023-04-06T14:21:02;16.90;89.60
21722;DHT22;11023;48.274;7.794;2023-04-06T14:23:28;16.90;90.50
21722;DHT22;11023;48.274;7.794;2023-04-06T14:26:02;16.90;91.00
21722;DHT22;11023;48.274;7.794;2023-04-06T14:28:29;16.90;91.00
21722;DHT22;11023;48.274;7.794;2023-04-06T14:34:30;16.90;90.60
21722;DHT22;11023;48.274;7.794;2023-04-06T14:37:14;17.00;90.30
21722;DHT22;11023;48.274;7.794;2023-04-06T14:39:45;16.80;91.00
21722;DHT22;11023;48.274;7.794;2023-04-06T14:42:29;16.90;91.10
21722;DHT22;11023;48.274;7.794;2023-04-06T14:44:55;16.80;90.60
21722;DHT22;11023;48.274;7.794;2023-04-06T14:47:21;16.80;90.90
21722;DHT22;11023;48.274;7.794;2023-04-06T14:49:50;16.80;91.20
21722;DHT22;11023;48.274;7.794;2023-04-06T14:52:15;16.70;91.50
21722;DHT22;11023;48.274;7.794;2023-04-06T14:54:41;16.60;92.00
21722;DHT22;11023;48.274;7.794;2023-04-06T14:57:09;16.50;93.40
21722;DHT22;11023;48.274;7.794;2023-04-06T14:59:35;16.60;93.40
21722;DHT22;11023;48.274;7.794;2023-04-06T15:02:02;16.50;93.70
21722;DHT22;11023;48.274;7.794;2023-04-06T15:04:29;16.40;93.90
21722;DHT22;11023;48.274;7.794;2023-04-06T15:06:55;16.40;94.00
21722;DHT22;11023;48.274;7.794;2023-04-06T15:09:21;16.30;93.60
21722;DHT22;11023;48.274;7.794;2023-04-06T15:11:50;16.20;94.50
21722;DHT22;11023;48.274;7.794;2023-04-06T15:14:15;16.20;94.20
21722;DHT22;11023;48.274;7.794;2023-04-06T15:16:41;16.10;94.70
21722;DHT22;11023;48.274;7.794;2023-04-06T15:19:07;16.10;94.90
21722;DHT22;11023;48.274;7.794;2023-04-06T15:21:33;16.00;95.20
21722;DHT22;11023;48.274;7.794;2023-04-06T15:24:00;16.00;95.40
21722;DHT22;11023;48.274;7.794;2023-04-06T15:26:25;15.90;95.20
21722;DHT22;11023;48.274;7.794;2023-04-06T15:28:51;15.90;94.30
21722;DHT22;11023;48.274;7.794;2023-04-06T15:31:18;15.80;95.20
21722;DHT22;11023;48.274;7.794;2023-04-06T15:33:46;15.70;94.70
21722;DHT22;11023;48.274;7.794;2023-04-06T15:36:38;15.60;95.80
21722;DHT22;11023;48.274;7.794;2023-04-06T15:39:04;15.50;95.60
21722;DHT22;11023;48.274;7.794;2023-04-06T15:41:33;15.40;95.80
21722;DHT22;11023;48.274;7.794;2023-04-06T15:43:59;15.10;97.30
21722;DHT22;11023;48.274;7.794;2023-04-06T15:46:25;15.10;98.60